DN4 weather

CLOSED Campbellton Water Aerodrome
Campbellton, New Brunswick, Canada

Public forecast

Using degrees Celsius for public forecast. Weather courtesy of forecast.io.

Closest aviation weather report (METAR) to Campbellton Water Aerodrome

Closest report is Bathurst Airport, 42.9 nm (79.4 km) ESE. Retrieved 2020/06/01 01:00 UTC (53 minutes ago):

CZBF 010100Z AUTO 25003KT 9SM BKN055 08/03 A2993 RMK SLP140

Closest aviation forecast (TAF) to Campbellton Water Aerodrome

Closest forecast is Bathurst Airport, 42.9 nm (79.4 km) ESE. Retrieved 2020/05/31 20:00 UTC (6 hours ago):

TAF CZBF 311930Z 3120/0103 29012G22KT P6SM BKN030 FM010000 31010G20KT P6SM SCT040 TEMPO 0100/0103 BKN040 RMK FCST BASED ON AUTO OBS NXT FCST WILL BE ISSUED AT 010845Z